createdAt,value
2019-04-07T00:01:58.253Z,11.40
2019-04-07T00:04:27.185Z,11.30
2019-04-07T00:06:56.085Z,11.30
2019-04-07T00:09:24.608Z,11.20
2019-04-07T00:11:53.590Z,11.20
2019-04-07T00:14:22.305Z,11.20
2019-04-07T00:16:50.759Z,11.10
2019-04-07T00:19:19.193Z,11.10
2019-04-07T00:21:47.936Z,11.00
2019-04-07T00:24:16.647Z,11.00
2019-04-07T00:26:45.177Z,11.00
2019-04-07T00:29:13.613Z,11.00
2019-04-07T00:31:42.069Z,10.90
2019-04-07T00:34:10.830Z,10.80
2019-04-07T00:36:39.684Z,10.80
2019-04-07T00:39:09.410Z,10.70
2019-04-07T00:41:38.675Z,10.70
2019-04-07T00:44:07.249Z,10.60
2019-04-07T00:46:35.689Z,10.60
2019-04-07T00:49:04.117Z,10.60
2019-04-07T00:51:33.136Z,10.50
2019-04-07T00:54:01.990Z,10.50
2019-04-07T00:56:31.085Z,10.50
2019-04-07T00:58:59.888Z,10.50
2019-04-07T01:01:28.397Z,10.40
2019-04-07T01:03:56.882Z,10.40
2019-04-07T01:06:25.349Z,10.40
2019-04-07T01:08:53.803Z,10.40
2019-04-07T01:11:22.257Z,10.40
2019-04-07T01:13:50.755Z,10.40
2019-04-07T01:16:19.841Z,10.30
2019-04-07T01:18:49.099Z,10.40
2019-04-07T01:21:17.727Z,10.40
2019-04-07T01:23:46.845Z,10.40
2019-04-07T01:26:15.361Z,10.30
2019-04-07T01:28:44.059Z,10.30
2019-04-07T01:31:13.297Z,10.20
2019-04-07T01:33:41.872Z,10.10
2019-04-07T01:36:11.140Z,10.10
2019-04-07T01:38:39.727Z,10.00
2019-04-07T01:41:12.833Z,10.00
2019-04-07T01:43:43.529Z,9.90
2019-04-07T01:46:16.460Z,9.90
2019-04-07T01:48:46.892Z,9.90
2019-04-07T01:51:17.015Z,9.90
2019-04-07T01:53:47.102Z,9.90
2019-04-07T01:56:17.387Z,9.80
2019-04-07T01:58:50.259Z,9.80
2019-04-07T02:01:31.212Z,9.80
2019-04-07T02:04:04.945Z,9.70
2019-04-07T02:06:35.099Z,9.70
2019-04-07T02:09:23.648Z,9.70
2019-04-07T02:12:11.957Z,9.60
2019-04-07T02:14:57.508Z,9.60
2019-04-07T02:17:37.272Z,9.50
2019-04-07T02:20:13.066Z,9.50
2019-04-07T02:22:48.851Z,9.50
2019-04-07T02:25:35.146Z,9.50
2019-04-07T02:28:20.564Z,9.50
2019-04-07T02:31:07.925Z,9.50
2019-04-07T02:33:44.259Z,9.40
2019-04-07T02:36:27.373Z,9.30
2019-04-07T02:39:11.383Z,9.30
2019-04-07T02:41:44.160Z,9.20
2019-04-07T02:44:31.499Z,9.20
2019-04-07T02:47:18.369Z,9.10
2019-04-07T02:49:51.776Z,9.10
2019-04-07T02:52:25.346Z,9.10
2019-04-07T02:55:04.533Z,9.10
2019-04-07T02:57:34.765Z,9.10
2019-04-07T03:00:18.539Z,9.10
2019-04-07T03:05:33.249Z,9.00
2019-04-07T03:08:06.043Z,9.00
2019-04-07T03:10:36.618Z,9.00
2019-04-07T03:13:07.342Z,9.00
2019-04-07T03:15:40.855Z,9.00
2019-04-07T03:18:14.228Z,9.00
2019-04-07T03:20:47.534Z,8.90
2019-04-07T03:23:30.510Z,8.80
2019-04-07T03:26:04.249Z,8.80
2019-04-07T03:28:34.702Z,8.80
2019-04-07T03:31:06.078Z,8.80
2019-04-07T03:33:54.346Z,8.80
2019-04-07T03:36:28.944Z,8.70
2019-04-07T03:39:12.489Z,8.70
2019-04-07T03:41:45.876Z,8.70
2019-04-07T03:44:16.106Z,8.70
2019-04-07T03:46:58.942Z,8.70
2019-04-07T03:52:14.419Z,8.60
2019-04-07T03:54:57.117Z,8.70
2019-04-07T03:57:33.000Z,8.60
2019-04-07T04:00:19.288Z,8.70
2019-04-07T04:02:49.374Z,8.70
2019-04-07T04:05:34.677Z,8.70
2019-04-07T04:08:11.316Z,8.70
2019-04-07T04:10:57.993Z,8.60
2019-04-07T04:16:14.934Z,8.60
2019-04-07T04:18:48.272Z,8.50
2019-04-07T04:21:19.810Z,8.50
2019-04-07T04:23:50.192Z,8.50
2019-04-07T04:26:21.487Z,8.40
2019-04-07T04:28:52.368Z,8.40
2019-04-07T04:31:21.679Z,8.40
2019-04-07T04:33:51.671Z,8.40
2019-04-07T04:36:22.217Z,8.40
2019-04-07T04:38:56.112Z,8.30
2019-04-07T04:41:27.371Z,8.30
2019-04-07T04:43:56.601Z,8.40
2019-04-07T04:46:25.888Z,8.30
2019-04-07T04:48:55.482Z,8.30
2019-04-07T04:51:24.518Z,8.30
2019-04-07T04:53:53.753Z,8.40
2019-04-07T04:56:22.882Z,8.30
2019-04-07T04:58:51.940Z,8.30
2019-04-07T05:01:39.878Z,8.30
2019-04-07T05:04:08.348Z,8.30
2019-04-07T05:06:41.216Z,8.30
2019-04-07T05:09:13.339Z,8.30
2019-04-07T05:11:41.876Z,8.30
2019-04-07T05:14:10.440Z,8.40
2019-04-07T05:16:38.928Z,8.40
2019-04-07T05:19:07.369Z,8.40
2019-04-07T05:21:36.205Z,8.40
2019-04-07T05:24:05.579Z,8.40
2019-04-07T05:26:56.117Z,8.50
2019-04-07T05:29:24.786Z,8.50
2019-04-07T05:31:54.007Z,8.50
2019-04-07T05:34:23.412Z,8.50
2019-04-07T05:36:54.471Z,8.50
2019-04-07T05:39:30.904Z,8.60
2019-04-07T05:42:02.549Z,8.60
2019-04-07T05:44:31.334Z,8.60
2019-04-07T05:47:00.696Z,8.50
2019-04-07T05:49:29.785Z,8.50
2019-04-07T05:52:02.862Z,8.40
2019-04-07T05:54:29.572Z,8.40
2019-04-07T05:57:01.522Z,8.50
2019-04-07T05:59:30.379Z,8.60
2019-04-07T06:02:01.548Z,8.50
2019-04-07T06:04:30.208Z,8.50
2019-04-07T06:06:59.120Z,8.60
2019-04-07T06:09:28.084Z,8.60
2019-04-07T06:11:57.681Z,8.70
2019-04-07T06:14:26.839Z,8.80
2019-04-07T06:16:56.001Z,8.90
2019-04-07T06:19:25.164Z,9.00
2019-04-07T06:21:56.963Z,9.00
2019-04-07T06:24:28.806Z,9.20
2019-04-07T06:26:56.561Z,9.20
2019-04-07T06:29:28.906Z,9.20
2019-04-07T06:32:03.346Z,9.30
2019-04-07T06:34:33.800Z,9.20
2019-04-07T06:37:03.441Z,9.20
2019-04-07T06:39:32.589Z,9.30
2019-04-07T06:42:06.059Z,9.30
2019-04-07T06:44:36.809Z,9.40
2019-04-07T06:47:16.003Z,9.50
2019-04-07T06:50:22.444Z,9.50
2019-04-07T06:53:16.315Z,9.50
2019-04-07T06:56:00.068Z,9.70
2019-04-07T06:58:28.575Z,9.80
2019-04-07T07:01:07.432Z,9.90
2019-04-07T07:06:52.537Z,10.00
2019-04-07T07:09:33.310Z,10.20
2019-04-07T07:12:30.706Z,10.20
2019-04-07T07:15:05.596Z,10.20
2019-04-07T07:18:03.588Z,10.30
2019-04-07T07:20:41.504Z,10.40
2019-04-07T07:23:15.103Z,10.40
2019-04-07T07:25:44.461Z,10.60
2019-04-07T07:28:13.557Z,10.80
2019-04-07T07:30:45.257Z,10.90
2019-04-07T07:33:13.864Z,11.00
2019-04-07T07:38:24.563Z,11.20
2019-04-07T07:41:03.603Z,11.20
2019-04-07T07:43:39.083Z,11.30
2019-04-07T07:46:12.097Z,11.50
2019-04-07T07:48:43.569Z,11.70
2019-04-07T07:51:31.466Z,11.90
2019-04-07T07:54:01.822Z,12.00
2019-04-07T07:56:49.443Z,12.00
2019-04-07T07:59:13.527Z,12.10
2019-04-07T08:01:46.228Z,12.30
2019-04-07T08:04:12.548Z,12.40
2019-04-07T08:06:41.242Z,12.60
2019-04-07T08:09:14.959Z,12.70
2019-04-07T08:11:40.648Z,12.90
2019-04-07T08:14:09.990Z,12.90
2019-04-07T08:16:41.487Z,13.00
2019-04-07T08:19:10.957Z,13.10
2019-04-07T08:21:40.678Z,13.30
2019-04-07T08:24:16.399Z,13.50
2019-04-07T08:26:45.956Z,13.70
2019-04-07T08:29:16.939Z,13.80
2019-04-07T08:31:44.923Z,13.90
2019-04-07T08:34:17.813Z,14.10
2019-04-07T08:36:47.431Z,14.20
2019-04-07T08:39:24.560Z,14.40
2019-04-07T08:41:48.837Z,14.50
2019-04-07T08:44:17.320Z,14.60
2019-04-07T08:46:46.366Z,14.90
2019-04-07T08:49:14.906Z,15.10
2019-04-07T08:51:43.832Z,15.30
2019-04-07T08:54:15.738Z,15.30
2019-04-07T08:56:43.569Z,15.50
2019-04-07T08:59:15.812Z,15.60
2019-04-07T09:01:42.510Z,15.70
2019-04-07T09:04:11.066Z,15.80
2019-04-07T09:06:39.665Z,15.80
2019-04-07T09:09:09.003Z,16.00
2019-04-07T09:11:39.952Z,16.30
2019-04-07T09:14:08.707Z,16.70
2019-04-07T09:16:39.367Z,16.90
2019-04-07T09:22:22.675Z,17.10
2019-04-07T09:27:48.585Z,17.20
2019-04-07T09:30:27.910Z,17.40
2019-04-07T09:33:07.096Z,17.70
2019-04-07T09:35:43.726Z,17.90
2019-04-07T09:38:14.343Z,18.00
2019-04-07T09:40:48.442Z,18.30
2019-04-07T09:43:36.560Z,18.30
2019-04-07T09:46:19.106Z,18.50
2019-04-07T09:48:58.832Z,18.70
2019-04-07T09:51:32.050Z,18.70
2019-04-07T09:54:05.215Z,18.60
2019-04-07T09:56:36.189Z,18.60
2019-04-07T09:59:10.044Z,18.80
2019-04-07T10:01:49.193Z,19.00
2019-04-07T10:04:19.338Z,19.30
2019-04-07T10:07:09.155Z,19.30
2019-04-07T10:09:43.813Z,19.50
2019-04-07T10:12:14.050Z,19.60
2019-04-07T10:14:44.146Z,19.70
2019-04-07T10:17:30.594Z,19.70
2019-04-07T10:20:17.855Z,19.90
2019-04-07T10:22:51.569Z,20.00
2019-04-07T10:25:39.085Z,19.90
2019-04-07T10:28:22.298Z,19.90
2019-04-07T10:30:58.616Z,19.90
2019-04-07T10:33:37.825Z,20.20
2019-04-07T10:36:25.294Z,20.40
2019-04-07T10:38:55.472Z,20.50
2019-04-07T10:41:29.418Z,20.60
2019-04-07T10:44:16.180Z,20.70
2019-04-07T10:46:47.250Z,20.90
2019-04-07T10:49:30.029Z,21.20
2019-04-07T10:52:09.231Z,21.20
2019-04-07T10:54:39.379Z,21.40
2019-04-07T10:57:18.867Z,21.70
2019-04-07T10:59:55.733Z,21.80
2019-04-07T11:02:42.552Z,21.60
2019-04-07T11:05:13.063Z,21.70
2019-04-07T11:07:45.882Z,21.80
2019-04-07T11:10:37.873Z,22.10
2019-04-07T11:13:20.939Z,22.50
2019-04-07T11:16:08.142Z,22.60
2019-04-07T11:18:38.476Z,22.70
2019-04-07T11:21:09.530Z,23.00
2019-04-07T11:23:52.318Z,23.50
2019-04-07T11:26:38.624Z,23.50
2019-04-07T11:29:09.349Z,23.90
2019-04-07T11:31:40.505Z,24.40
2019-04-07T11:34:22.790Z,24.50
2019-04-07T11:37:10.955Z,24.30
2019-04-07T11:39:44.584Z,24.10
2019-04-07T11:42:17.474Z,24.20
2019-04-07T11:44:56.271Z,24.30
2019-04-07T11:47:26.348Z,24.30
2019-04-07T11:50:11.485Z,24.40
2019-04-07T11:52:44.363Z,24.60
2019-04-07T11:55:27.311Z,25.20
2019-04-07T11:58:09.822Z,25.60
2019-04-07T12:00:32.196Z,25.70
2019-04-07T12:03:06.001Z,26.00
2019-04-07T12:05:45.049Z,26.40
2019-04-07T12:08:17.556Z,27.00
2019-04-07T12:11:06.606Z,27.10
2019-04-07T12:13:42.743Z,27.40
2019-04-07T12:16:11.176Z,28.00
2019-04-07T12:18:52.139Z,28.10
2019-04-07T12:21:38.080Z,28.70
2019-04-07T12:24:09.795Z,29.00
2019-04-07T12:26:43.784Z,29.40
2019-04-07T12:29:14.461Z,30.00
2019-04-07T12:31:47.307Z,30.50
2019-04-07T12:34:34.372Z,30.50
2019-04-07T12:37:17.565Z,31.00
2019-04-07T12:39:50.160Z,31.40
2019-04-07T12:42:22.469Z,32.20
2019-04-07T12:45:04.783Z,33.00
2019-04-07T12:47:44.060Z,33.70
2019-04-07T12:50:30.723Z,34.10
2019-04-07T12:53:04.883Z,34.30
2019-04-07T12:55:54.973Z,35.10
2019-04-07T12:58:19.223Z,35.80
2019-04-07T13:00:57.005Z,35.70
2019-04-07T13:03:27.816Z,34.70
2019-04-07T13:06:08.668Z,33.30
2019-04-07T13:08:41.252Z,32.00
2019-04-07T13:11:31.238Z,31.20
2019-04-07T13:14:10.046Z,30.20
2019-04-07T13:16:40.336Z,30.30
2019-04-07T13:19:13.188Z,29.90
2019-04-07T13:21:44.679Z,29.40
2019-04-07T13:24:22.082Z,28.40
2019-04-07T13:26:45.885Z,28.60
2019-04-07T13:29:28.083Z,28.20
2019-04-07T13:32:07.631Z,28.40
2019-04-07T13:34:49.922Z,29.40
2019-04-07T13:37:23.456Z,30.20
2019-04-07T13:39:54.520Z,29.70
2019-04-07T13:42:27.874Z,29.00
2019-04-07T13:45:16.452Z,28.30
2019-04-07T13:47:55.700Z,27.50
2019-04-07T13:50:33.305Z,26.90
2019-04-07T13:53:09.950Z,26.60
2019-04-07T13:55:46.193Z,26.20
2019-04-07T13:58:35.711Z,26.80
2019-04-07T14:01:12.730Z,27.50
2019-04-07T14:03:52.344Z,28.00
2019-04-07T14:06:32.922Z,27.40
2019-04-07T14:09:09.324Z,26.60
2019-04-07T14:11:52.476Z,26.10
2019-04-07T14:14:11.315Z,26.50
2019-04-07T14:16:53.932Z,28.50
2019-04-07T14:19:30.060Z,29.80
2019-04-07T14:22:03.304Z,31.20
2019-04-07T14:24:36.262Z,31.80
2019-04-07T14:27:09.791Z,33.00
2019-04-07T14:29:43.051Z,34.20
2019-04-07T14:32:16.333Z,34.30
2019-04-07T14:35:05.374Z,34.40
2019-04-07T14:37:52.714Z,34.00
2019-04-07T14:40:35.115Z,32.20
2019-04-07T14:43:11.105Z,31.00
2019-04-07T14:45:41.704Z,29.80
2019-04-07T14:48:18.486Z,28.40
2019-04-07T14:50:54.885Z,27.50
2019-04-07T14:53:30.713Z,26.90
2019-04-07T14:56:17.582Z,26.30
2019-04-07T14:58:53.894Z,25.90
2019-04-07T15:01:24.118Z,26.20
2019-04-07T15:03:52.594Z,27.60
2019-04-07T15:06:21.730Z,28.50
2019-04-07T15:09:06.776Z,28.20
2019-04-07T15:11:38.884Z,27.60
2019-04-07T15:14:08.217Z,26.30
2019-04-07T15:16:36.852Z,25.60
2019-04-07T15:19:05.513Z,25.20
2019-04-07T15:21:34.329Z,24.90
2019-04-07T15:24:05.905Z,24.70
2019-04-07T15:26:33.656Z,24.50
2019-04-07T15:29:05.346Z,24.90
2019-04-07T15:31:33.044Z,24.60
2019-04-07T15:34:04.209Z,24.20
2019-04-07T15:36:31.932Z,23.80
2019-04-07T15:39:01.147Z,23.40
2019-04-07T15:41:30.629Z,23.10
2019-04-07T15:43:59.243Z,23.00
2019-04-07T15:46:28.806Z,23.40
2019-04-07T15:48:58.316Z,24.10
2019-04-07T15:51:26.828Z,24.40
2019-04-07T15:53:55.457Z,24.30
2019-04-07T15:56:24.188Z,24.30
2019-04-07T15:58:52.918Z,24.20
2019-04-07T16:01:21.836Z,24.20
2019-04-07T16:03:52.642Z,24.00
2019-04-07T16:06:20.679Z,23.60
2019-04-07T16:08:49.790Z,23.40
2019-04-07T16:11:19.026Z,23.00
2019-04-07T16:13:47.649Z,22.70
2019-04-07T16:16:16.155Z,22.40
2019-04-07T16:18:45.468Z,22.10
2019-04-07T16:21:14.366Z,21.90
2019-04-07T16:23:42.999Z,21.80
2019-04-07T16:26:11.875Z,21.70
2019-04-07T16:28:43.266Z,21.60
2019-04-07T16:31:10.604Z,21.50
2019-04-07T16:33:39.796Z,21.40
2019-04-07T16:36:08.635Z,21.30
2019-04-07T16:38:37.142Z,21.30
2019-04-07T16:41:06.462Z,21.30
2019-04-07T16:43:36.582Z,21.30
2019-04-07T16:46:05.583Z,21.20
2019-04-07T16:48:38.566Z,21.10
2019-04-07T16:51:04.295Z,21.10
2019-04-07T16:53:36.480Z,21.00
2019-04-07T16:56:02.896Z,21.00
2019-04-07T16:58:35.405Z,21.00
2019-04-07T17:01:01.501Z,20.80
2019-04-07T17:03:29.947Z,20.80
2019-04-07T17:06:00.302Z,20.70
2019-04-07T17:08:28.851Z,20.70
2019-04-07T17:10:59.368Z,20.60
2019-04-07T17:13:37.048Z,20.60
2019-04-07T17:15:59.377Z,20.40
2019-04-07T17:19:05.441Z,20.30
2019-04-07T17:21:34.030Z,20.20
2019-04-07T17:24:04.047Z,20.00
2019-04-07T17:26:35.400Z,20.00
2019-04-07T17:29:03.239Z,19.90
2019-04-07T17:31:32.623Z,19.90
2019-04-07T17:34:09.926Z,19.90
2019-04-07T17:36:35.448Z,19.90
2019-04-07T17:39:18.622Z,19.80
2019-04-07T17:41:50.399Z,19.80
2019-04-07T17:44:26.825Z,19.70
2019-04-07T17:47:09.671Z,19.60
2019-04-07T17:49:59.159Z,19.60
2019-04-07T17:52:47.071Z,19.50
2019-04-07T17:55:27.987Z,19.40
2019-04-07T17:58:01.631Z,19.30
2019-04-07T18:00:50.508Z,19.20
2019-04-07T18:03:19.843Z,19.30
2019-04-07T18:06:01.891Z,19.20
2019-04-07T18:08:50.759Z,19.10
2019-04-07T18:11:31.814Z,19.00
2019-04-07T18:14:20.918Z,18.90
2019-04-07T18:16:54.782Z,19.00
2019-04-07T18:19:41.285Z,19.00
2019-04-07T18:22:18.196Z,18.90
2019-04-07T18:25:05.123Z,18.90
2019-04-07T18:27:38.335Z,18.80
2019-04-07T18:30:09.806Z,18.80
2019-04-07T18:32:45.017Z,18.70
2019-04-07T18:35:23.826Z,18.70
2019-04-07T18:37:54.364Z,18.70
2019-04-07T18:40:27.297Z,18.70
2019-04-07T18:42:56.255Z,18.60
2019-04-07T18:45:46.531Z,18.60
2019-04-07T18:48:17.240Z,18.60
2019-04-07T18:50:50.123Z,18.60
2019-04-07T18:53:27.665Z,18.50
2019-04-07T18:55:57.982Z,18.50
2019-04-07T19:01:45.697Z,18.50
2019-04-07T19:04:28.794Z,18.50
2019-04-07T19:07:08.713Z,18.40
2019-04-07T19:09:47.855Z,18.30
2019-04-07T19:12:34.557Z,18.30
2019-04-07T19:15:09.179Z,18.30
2019-04-07T19:17:54.683Z,18.30
2019-04-07T19:20:22.933Z,18.30
2019-04-07T19:22:53.976Z,18.20
2019-04-07T19:25:44.578Z,18.20
2019-04-07T19:28:12.263Z,18.20
2019-04-07T19:30:55.121Z,18.20
2019-04-07T19:33:26.843Z,18.20
2019-04-07T19:35:59.804Z,18.10
2019-04-07T19:38:49.336Z,18.00
2019-04-07T19:41:20.785Z,18.00
2019-04-07T19:43:54.975Z,18.00
2019-04-07T19:46:28.188Z,18.00
2019-04-07T19:48:57.411Z,17.90
2019-04-07T19:51:30.596Z,17.90
2019-04-07T19:54:04.428Z,17.90
2019-04-07T19:56:40.542Z,17.90
2019-04-07T19:59:22.659Z,17.90
2019-04-07T20:01:52.732Z,17.80
2019-04-07T20:04:25.753Z,17.80
2019-04-07T20:07:00.813Z,17.80
2019-04-07T20:09:34.257Z,17.80
2019-04-07T20:12:07.383Z,17.80
2019-04-07T20:14:50.308Z,17.70
2019-04-07T20:17:30.962Z,17.70
2019-04-07T20:20:13.640Z,17.60
2019-04-07T20:22:49.495Z,17.60
2019-04-07T20:25:20.392Z,17.60
2019-04-07T20:27:51.244Z,17.50
2019-04-07T20:30:24.252Z,17.50
2019-04-07T20:33:02.793Z,17.40
2019-04-07T20:38:25.524Z,17.40
2019-04-07T20:41:02.104Z,17.30
2019-04-07T20:43:33.011Z,17.30
2019-04-07T20:46:13.122Z,17.20
2019-04-07T20:48:46.196Z,17.20
2019-04-07T20:51:34.573Z,17.20
2019-04-07T20:54:21.767Z,17.10
2019-04-07T20:59:53.078Z,17.00
2019-04-07T21:02:31.177Z,17.00
2019-04-07T21:08:17.577Z,17.00
2019-04-07T21:11:05.288Z,16.90
2019-04-07T21:13:37.664Z,16.90
2019-04-07T21:16:08.224Z,16.80
2019-04-07T21:18:54.898Z,16.70
2019-04-07T21:21:25.641Z,16.70
2019-04-07T21:23:59.437Z,16.70
2019-04-07T21:26:30.947Z,16.60
2019-04-07T21:29:08.180Z,16.50
2019-04-07T21:31:48.720Z,16.50
2019-04-07T21:34:18.993Z,16.50
2019-04-07T21:39:43.935Z,16.30
2019-04-07T21:45:05.439Z,16.20
2019-04-07T21:47:50.332Z,16.10
2019-04-07T21:50:24.202Z,15.90
2019-04-07T21:52:56.934Z,15.80
2019-04-07T21:55:27.179Z,15.80
2019-04-07T22:00:53.764Z,15.60
2019-04-07T22:03:40.305Z,15.60
2019-04-07T22:06:16.557Z,15.60
2019-04-07T22:08:49.777Z,15.60
2019-04-07T22:11:22.606Z,15.60
2019-04-07T22:13:49.206Z,15.60
2019-04-07T22:16:18.509Z,15.60
2019-04-07T22:18:47.141Z,15.60
2019-04-07T22:21:15.573Z,15.50
2019-04-07T22:23:44.322Z,15.50
2019-04-07T22:26:17.921Z,15.50
2019-04-07T22:28:43.099Z,15.40
2019-04-07T22:31:14.629Z,15.40
2019-04-07T22:33:43.212Z,15.30
2019-04-07T22:36:14.161Z,15.30
2019-04-07T22:38:41.894Z,15.30
2019-04-07T22:41:11.217Z,15.20
2019-04-07T22:43:39.857Z,15.20
2019-04-07T22:46:16.953Z,15.20
2019-04-07T22:48:38.505Z,15.20
2019-04-07T22:51:09.902Z,15.10
2019-04-07T22:53:37.149Z,15.10
2019-04-07T22:56:07.803Z,15.00
2019-04-07T22:58:36.125Z,15.00
2019-04-07T23:01:05.183Z,15.00
2019-04-07T23:03:34.447Z,15.00
2019-04-07T23:06:03.157Z,15.00
2019-04-07T23:08:32.804Z,14.90
2019-04-07T23:11:02.212Z,14.90
2019-04-07T23:13:30.719Z,14.90
2019-04-07T23:16:09.987Z,14.90
2019-04-07T23:18:29.842Z,14.80
2019-04-07T23:20:58.283Z,14.80
2019-04-07T23:23:26.757Z,14.70
2019-04-07T23:25:55.661Z,14.60
2019-04-07T23:28:25.017Z,14.60
2019-04-07T23:30:53.664Z,14.50
2019-04-07T23:33:22.298Z,14.50
2019-04-07T23:35:50.855Z,14.50
2019-04-07T23:38:19.797Z,14.40
2019-04-07T23:40:49.335Z,14.30
2019-04-07T23:43:17.993Z,14.20
2019-04-07T23:45:46.408Z,14.20
2019-04-07T23:48:15.799Z,14.10
2019-04-07T23:50:44.367Z,14.00
2019-04-07T23:53:48.965Z,13.90
2019-04-07T23:56:17.666Z,13.90
2019-04-07T23:58:46.227Z,13.80
